Montgomery, New York
Current Conditions -  °F | °C
As of 7:54 PM on Monday 24 Nov 2014 (Local Time) from KMGJ Reporting Station
Clear Clear  
Wind Chill: 63°   Ceiling: Unl
Heat Index: 63°   Visibility: 10mi
Dew Point: 53°   Wind: 8mph
Humidity: 70%   Direction: 200°SSW
Pressure: 29.63"   Gusts: NA
Location:  41.53°N, 74.24°W
Report Text: KMGJ 250054Z AUTO 20007KT 10SM CLR 17/12 A2963 RMK AO2 SLP032 T01720117 TSNO
Loading
Personal Weather Stations






























Interactive Weather Map New forecast layout! Learn more

10-Day Weather Forecast

Advertisements
Track Severe Weather on mobile